LFPV METAR and TAF | Updated Today

LFPV METAR

Villacoublay-Vélizy (BA 107) Air Base

Observation time: 7 min. ago

LFPV 080730Z AUTO 22006KT 190V270 9999 BKN013 BKN018 BKN250 03/02 Q0997 BECMG NSC

Need help? Read our tutorial on how to read METARs or read the parsed version below.

Villacoublay-Vélizy (BA 107) Air Base (LFPV) METAR

  • Weather conditions on Wed, 08 Dec 2021 07:30:00 +0000 (7 min. ago):
  • Present conditions: Dry
  • Clouds: Broken sky at 396 meters; broken sky at 549 meters; broken sky at 7620 meters
  • Visibility: Greater than 10 km
  • Wind: 220 degrees at 6 knots
  • Temperature: 3 celsius
  • Dew point: 2 celsius
  • Pressure: 997 millibars
  • Remarks: None


Useful to know...

LFPV TAF

Villacoublay-Vélizy (BA 107) Air Base

TAF LFPV 080200Z 0803/0903 22010KT CAVOK TX06/0814Z TN03/0805Z PROB30 TEMPO 0812/0818 BKN010
Observation time: 5:37 hr. ago
Need help? Read our tutorial on how to read TAFs or read the parsed version below.

Parsed version of TAF for Villacoublay-Vélizy (BA 107) Air Base (LFPV)

  • From 08 December at 03:00 UTC, to day 09 of the month at 03:00 UTC
  • Visibility: Greater than 10 km
  • Wind: 220 degrees at 10
  • Expected to arise temporarily, from 08 December at 12:00 UTC, to day 08 of the month at 18:00 UTC
    Probability of 30%
  • Clouds: Broken sky at 305 meters